sensor_id;sensor_type;location;lat;lon;timestamp;P1;durP1;ratioP1;P2;durP2;ratioP2
15669;SDS011;18524;45.190;5.732;2022-10-16T00:00:38;4.77;;;3.80;;
15669;SDS011;18524;45.190;5.732;2022-10-16T00:05:29;5.07;;;3.73;;
15669;SDS011;18524;45.190;5.732;2022-10-16T00:10:20;4.27;;;3.87;;
15669;SDS011;18524;45.190;5.732;2022-10-16T00:15:10;5.03;;;4.20;;
15669;SDS011;18524;45.190;5.732;2022-10-16T00:20:01;4.17;;;3.60;;
15669;SDS011;18524;45.190;5.732;2022-10-16T00:24:52;7.30;;;4.73;;
15669;SDS011;18524;45.190;5.732;2022-10-16T00:29:42;10.17;;;6.30;;
15669;SDS011;18524;45.190;5.732;2022-10-16T00:34:33;4.93;;;4.20;;
15669;SDS011;18524;45.190;5.732;2022-10-16T00:39:23;4.90;;;3.73;;
15669;SDS011;18524;45.190;5.732;2022-10-16T00:49:32;5.80;;;4.50;;
15669;SDS011;18524;45.190;5.732;2022-10-16T00:54:24;5.70;;;4.63;;
15669;SDS011;18524;45.190;5.732;2022-10-16T00:59:23;6.70;;;4.33;;
15669;SDS011;18524;45.190;5.732;2022-10-16T01:04:15;6.87;;;4.20;;
15669;SDS011;18524;45.190;5.732;2022-10-16T01:09:11;5.93;;;3.37;;
15669;SDS011;18524;45.190;5.732;2022-10-16T01:24:43;7.27;;;3.80;;
15669;SDS011;18524;45.190;5.732;2022-10-16T01:29:52;5.40;;;3.73;;
15669;SDS011;18524;45.190;5.732;2022-10-16T01:34:59;5.67;;;3.90;;
15669;SDS011;18524;45.190;5.732;2022-10-16T01:39:55;4.57;;;3.60;;
15669;SDS011;18524;45.190;5.732;2022-10-16T01:44:51;5.13;;;3.60;;
15669;SDS011;18524;45.190;5.732;2022-10-16T01:49:43;4.53;;;3.37;;
15669;SDS011;18524;45.190;5.732;2022-10-16T01:54:35;5.50;;;3.50;;
15669;SDS011;18524;45.190;5.732;2022-10-16T01:59:28;4.63;;;3.13;;
15669;SDS011;18524;45.190;5.732;2022-10-16T02:04:23;3.50;;;3.20;;
15669;SDS011;18524;45.190;5.732;2022-10-16T02:09:21;3.60;;;3.30;;
15669;SDS011;18524;45.190;5.732;2022-10-16T02:14:12;3.90;;;3.40;;
15669;SDS011;18524;45.190;5.732;2022-10-16T02:19:03;3.77;;;3.10;;
15669;SDS011;18524;45.190;5.732;2022-10-16T02:24:03;3.03;;;2.73;;
15669;SDS011;18524;45.190;5.732;2022-10-16T02:29:01;4.43;;;2.83;;
15669;SDS011;18524;45.190;5.732;2022-10-16T02:34:02;5.57;;;3.20;;
15669;SDS011;18524;45.190;5.732;2022-10-16T02:38:55;4.17;;;3.13;;
15669;SDS011;18524;45.190;5.732;2022-10-16T02:43:45;5.13;;;3.10;;
15669;SDS011;18524;45.190;5.732;2022-10-16T02:48:36;4.03;;;3.47;;
15669;SDS011;18524;45.190;5.732;2022-10-16T02:53:26;4.03;;;3.60;;
15669;SDS011;18524;45.190;5.732;2022-10-16T02:58:16;4.53;;;3.70;;
15669;SDS011;18524;45.190;5.732;2022-10-16T03:03:07;4.03;;;3.63;;
15669;SDS011;18524;45.190;5.732;2022-10-16T03:07:57;6.47;;;3.83;;
15669;SDS011;18524;45.190;5.732;2022-10-16T03:12:50;5.57;;;3.80;;
15669;SDS011;18524;45.190;5.732;2022-10-16T03:17:41;6.83;;;3.33;;
15669;SDS011;18524;45.190;5.732;2022-10-16T03:22:31;3.53;;;3.10;;
15669;SDS011;18524;45.190;5.732;2022-10-16T03:27:21;3.70;;;3.40;;
15669;SDS011;18524;45.190;5.732;2022-10-16T03:32:12;5.53;;;3.70;;
15669;SDS011;18524;45.190;5.732;2022-10-16T03:37:02;7.20;;;3.60;;
15669;SDS011;18524;45.190;5.732;2022-10-16T03:41:53;5.27;;;4.10;;
15669;SDS011;18524;45.190;5.732;2022-10-16T03:46:43;4.30;;;3.90;;
15669;SDS011;18524;45.190;5.732;2022-10-16T03:51:34;4.93;;;3.73;;
15669;SDS011;18524;45.190;5.732;2022-10-16T03:56:24;5.57;;;3.90;;
15669;SDS011;18524;45.190;5.732;2022-10-16T04:01:14;5.33;;;3.67;;
15669;SDS011;18524;45.190;5.732;2022-10-16T04:06:05;6.37;;;3.50;;
15669;SDS011;18524;45.190;5.732;2022-10-16T04:10:55;4.80;;;3.30;;
15669;SDS011;18524;45.190;5.732;2022-10-16T04:15:45;3.63;;;3.17;;
15669;SDS011;18524;45.190;5.732;2022-10-16T04:20:36;8.83;;;3.40;;
15669;SDS011;18524;45.190;5.732;2022-10-16T04:25:26;6.47;;;4.20;;
15669;SDS011;18524;45.190;5.732;2022-10-16T04:30:17;5.53;;;5.00;;
15669;SDS011;18524;45.190;5.732;2022-10-16T04:35:07;6.53;;;3.87;;
15669;SDS011;18524;45.190;5.732;2022-10-16T04:39:58;5.47;;;4.13;;
15669;SDS011;18524;45.190;5.732;2022-10-16T04:44:48;6.70;;;4.90;;
15669;SDS011;18524;45.190;5.732;2022-10-16T04:49:39;4.30;;;3.90;;
15669;SDS011;18524;45.190;5.732;2022-10-16T04:54:29;5.67;;;4.60;;
15669;SDS011;18524;45.190;5.732;2022-10-16T04:59:20;6.40;;;4.33;;
15669;SDS011;18524;45.190;5.732;2022-10-16T05:04:12;5.53;;;3.70;;
15669;SDS011;18524;45.190;5.732;2022-10-16T05:09:02;6.87;;;3.80;;
15669;SDS011;18524;45.190;5.732;2022-10-16T05:13:53;4.50;;;4.10;;
15669;SDS011;18524;45.190;5.732;2022-10-16T05:18:43;4.13;;;3.80;;
15669;SDS011;18524;45.190;5.732;2022-10-16T05:23:33;5.37;;;3.50;;
15669;SDS011;18524;45.190;5.732;2022-10-16T05:28:24;6.23;;;3.83;;
15669;SDS011;18524;45.190;5.732;2022-10-16T05:33:16;4.17;;;3.40;;
15669;SDS011;18524;45.190;5.732;2022-10-16T05:38:06;6.77;;;6.03;;
15669;SDS011;18524;45.190;5.732;2022-10-16T05:42:57;24.67;;;22.37;;
15669;SDS011;18524;45.190;5.732;2022-10-16T05:47:47;29.13;;;26.53;;
15669;SDS011;18524;45.190;5.732;2022-10-16T05:52:37;27.37;;;24.87;;
15669;SDS011;18524;45.190;5.732;2022-10-16T05:57:28;21.30;;;19.40;;
15669;SDS011;18524;45.190;5.732;2022-10-16T06:02:18;15.87;;;14.50;;
15669;SDS011;18524;45.190;5.732;2022-10-16T06:07:09;11.20;;;10.20;;
15669;SDS011;18524;45.190;5.732;2022-10-16T06:11:59;12.27;;;8.90;;
15669;SDS011;18524;45.190;5.732;2022-10-16T06:16:49;9.97;;;9.00;;
15669;SDS011;18524;45.190;5.732;2022-10-16T06:21:40;11.03;;;9.97;;
15669;SDS011;18524;45.190;5.732;2022-10-16T06:26:31;9.33;;;7.60;;
15669;SDS011;18524;45.190;5.732;2022-10-16T06:31:21;8.70;;;6.00;;
15669;SDS011;18524;45.190;5.732;2022-10-16T06:36:13;6.67;;;4.57;;
15669;SDS011;18524;45.190;5.732;2022-10-16T06:41:05;8.00;;;5.00;;
15669;SDS011;18524;45.190;5.732;2022-10-16T06:45:56;4.90;;;4.40;;
15669;SDS011;18524;45.190;5.732;2022-10-16T06:51:00;4.50;;;3.60;;
15669;SDS011;18524;45.190;5.732;2022-10-16T06:55:55;3.70;;;3.40;;
15669;SDS011;18524;45.190;5.732;2022-10-16T07:00:46;5.23;;;3.40;;
15669;SDS011;18524;45.190;5.732;2022-10-16T07:05:37;8.10;;;3.90;;
15669;SDS011;18524;45.190;5.732;2022-10-16T07:10:31;4.80;;;3.00;;
15669;SDS011;18524;45.190;5.732;2022-10-16T07:15:22;4.03;;;3.10;;
15669;SDS011;18524;45.190;5.732;2022-10-16T07:20:12;2.83;;;2.47;;
15669;SDS011;18524;45.190;5.732;2022-10-16T07:25:03;3.93;;;3.27;;
15669;SDS011;18524;45.190;5.732;2022-10-16T07:29:54;4.23;;;3.00;;
15669;SDS011;18524;45.190;5.732;2022-10-16T07:34:44;5.17;;;2.77;;
15669;SDS011;18524;45.190;5.732;2022-10-16T07:39:35;3.33;;;2.80;;
15669;SDS011;18524;45.190;5.732;2022-10-16T07:44:26;4.83;;;3.03;;
15669;SDS011;18524;45.190;5.732;2022-10-16T07:49:16;5.37;;;2.97;;
15669;SDS011;18524;45.190;5.732;2022-10-16T07:54:07;4.07;;;2.50;;
15669;SDS011;18524;45.190;5.732;2022-10-16T07:58:59;6.40;;;3.40;;
15669;SDS011;18524;45.190;5.732;2022-10-16T08:03:50;5.57;;;3.97;;
15669;SDS011;18524;45.190;5.732;2022-10-16T08:08:41;3.63;;;2.50;;
15669;SDS011;18524;45.190;5.732;2022-10-16T08:13:32;3.63;;;2.00;;
15669;SDS011;18524;45.190;5.732;2022-10-16T08:18:22;7.03;;;3.17;;
15669;SDS011;18524;45.190;5.732;2022-10-16T08:23:13;5.43;;;4.07;;
15669;SDS011;18524;45.190;5.732;2022-10-16T08:28:04;3.00;;;2.70;;
15669;SDS011;18524;45.190;5.732;2022-10-16T08:32:56;3.03;;;2.63;;
15669;SDS011;18524;45.190;5.732;2022-10-16T08:37:48;4.50;;;2.30;;
15669;SDS011;18524;45.190;5.732;2022-10-16T08:47:35;3.70;;;2.40;;
15669;SDS011;18524;45.190;5.732;2022-10-16T08:52:35;2.93;;;2.00;;
15669;SDS011;18524;45.190;5.732;2022-10-16T08:57:30;3.73;;;2.13;;
15669;SDS011;18524;45.190;5.732;2022-10-16T09:02:38;1.70;;;1.60;;
15669;SDS011;18524;45.190;5.732;2022-10-16T09:18:12;7.70;;;3.93;;
15669;SDS011;18524;45.190;5.732;2022-10-16T09:23:13;5.37;;;3.00;;
15669;SDS011;18524;45.190;5.732;2022-10-16T09:28:08;1.73;;;1.43;;
15669;SDS011;18524;45.190;5.732;2022-10-16T09:33:00;3.97;;;2.20;;
15669;SDS011;18524;45.190;5.732;2022-10-16T09:37:51;2.40;;;2.20;;
15669;SDS011;18524;45.190;5.732;2022-10-16T09:42:44;2.73;;;2.40;;
15669;SDS011;18524;45.190;5.732;2022-10-16T09:47:36;3.03;;;2.30;;
15669;SDS011;18524;45.190;5.732;2022-10-16T09:52:30;2.23;;;1.87;;
15669;SDS011;18524;45.190;5.732;2022-10-16T09:57:21;3.20;;;1.90;;
15669;SDS011;18524;45.190;5.732;2022-10-16T10:02:12;3.67;;;1.80;;
15669;SDS011;18524;45.190;5.732;2022-10-16T10:07:05;2.43;;;1.60;;
15669;SDS011;18524;45.190;5.732;2022-10-16T10:16:48;3.60;;;1.97;;
15669;SDS011;18524;45.190;5.732;2022-10-16T10:21:39;1.87;;;1.53;;
15669;SDS011;18524;45.190;5.732;2022-10-16T10:26:29;2.90;;;1.60;;
15669;SDS011;18524;45.190;5.732;2022-10-16T10:46:34;3.80;;;1.83;;
15669;SDS011;18524;45.190;5.732;2022-10-16T10:51:31;3.20;;;1.60;;
15669;SDS011;18524;45.190;5.732;2022-10-16T11:01:56;2.83;;;1.73;;
15669;SDS011;18524;45.190;5.732;2022-10-16T11:06:59;2.40;;;1.60;;
15669;SDS011;18524;45.190;5.732;2022-10-16T11:17:33;3.70;;;1.67;;
15669;SDS011;18524;45.190;5.732;2022-10-16T11:22:45;2.37;;;1.90;;
15669;SDS011;18524;45.190;5.732;2022-10-16T11:27:43;3.10;;;2.30;;
15669;SDS011;18524;45.190;5.732;2022-10-16T11:43:30;5.50;;;2.60;;
15669;SDS011;18524;45.190;5.732;2022-10-16T11:48:32;4.90;;;2.60;;
15669;SDS011;18524;45.190;5.732;2022-10-16T12:03:42;3.67;;;1.90;;
15669;SDS011;18524;45.190;5.732;2022-10-16T12:08:54;2.63;;;2.10;;
15669;SDS011;18524;45.190;5.732;2022-10-16T12:13:46;1.70;;;1.60;;
15669;SDS011;18524;45.190;5.732;2022-10-16T12:18:38;3.20;;;1.70;;
15669;SDS011;18524;45.190;5.732;2022-10-16T12:23:31;2.07;;;1.57;;
15669;SDS011;18524;45.190;5.732;2022-10-16T12:28:26;1.93;;;1.83;;
15669;SDS011;18524;45.190;5.732;2022-10-16T12:38:19;1.70;;;1.60;;
15669;SDS011;18524;45.190;5.732;2022-10-16T12:48:21;1.67;;;1.57;;
15669;SDS011;18524;45.190;5.732;2022-10-16T12:53:30;3.70;;;1.70;;
15669;SDS011;18524;45.190;5.732;2022-10-16T13:03:43;1.93;;;1.50;;
15669;SDS011;18524;45.190;5.732;2022-10-16T13:24:14;1.90;;;1.37;;
15669;SDS011;18524;45.190;5.732;2022-10-16T13:29:13;2.30;;;1.50;;
15669;SDS011;18524;45.190;5.732;2022-10-16T13:34:04;2.47;;;1.20;;
15669;SDS011;18524;45.190;5.732;2022-10-16T13:39:13;1.30;;;1.10;;
15669;SDS011;18524;45.190;5.732;2022-10-16T13:44:42;1.60;;;1.33;;
15669;SDS011;18524;45.190;5.732;2022-10-16T13:49:27;1.30;;;1.30;;
15669;SDS011;18524;45.190;5.732;2022-10-16T13:54:17;2.37;;;1.40;;
15669;SDS011;18524;45.190;5.732;2022-10-16T13:59:27;1.67;;;1.50;;
15669;SDS011;18524;45.190;5.732;2022-10-16T14:04:23;1.50;;;1.10;;
15669;SDS011;18524;45.190;5.732;2022-10-16T14:09:24;1.97;;;1.40;;
15669;SDS011;18524;45.190;5.732;2022-10-16T14:14:17;2.70;;;1.30;;
15669;SDS011;18524;45.190;5.732;2022-10-16T14:19:29;1.23;;;1.10;;
15669;SDS011;18524;45.190;5.732;2022-10-16T14:29:20;3.17;;;1.83;;
15669;SDS011;18524;45.190;5.732;2022-10-16T14:34:24;2.50;;;1.30;;
15669;SDS011;18524;45.190;5.732;2022-10-16T14:39:17;2.37;;;1.43;;
15669;SDS011;18524;45.190;5.732;2022-10-16T14:44:10;1.37;;;1.20;;
15669;SDS011;18524;45.190;5.732;2022-10-16T14:53:58;1.90;;;1.40;;
15669;SDS011;18524;45.190;5.732;2022-10-16T14:58:52;2.03;;;1.30;;
15669;SDS011;18524;45.190;5.732;2022-10-16T15:03:43;2.17;;;1.33;;
15669;SDS011;18524;45.190;5.732;2022-10-16T15:08:33;2.10;;;1.50;;
15669;SDS011;18524;45.190;5.732;2022-10-16T15:13:24;1.87;;;1.40;;
15669;SDS011;18524;45.190;5.732;2022-10-16T15:18:14;2.10;;;1.30;;
15669;SDS011;18524;45.190;5.732;2022-10-16T15:23:14;1.77;;;1.60;;
15669;SDS011;18524;45.190;5.732;2022-10-16T15:28:05;3.10;;;1.60;;
15669;SDS011;18524;45.190;5.732;2022-10-16T15:32:57;2.43;;;1.80;;
15669;SDS011;18524;45.190;5.732;2022-10-16T15:37:47;1.60;;;1.50;;
15669;SDS011;18524;45.190;5.732;2022-10-16T15:42:38;3.37;;;1.70;;
15669;SDS011;18524;45.190;5.732;2022-10-16T15:47:29;3.03;;;1.60;;
15669;SDS011;18524;45.190;5.732;2022-10-16T15:52:19;1.90;;;1.60;;
15669;SDS011;18524;45.190;5.732;2022-10-16T15:57:10;2.60;;;1.63;;
15669;SDS011;18524;45.190;5.732;2022-10-16T16:02:00;3.70;;;1.70;;
15669;SDS011;18524;45.190;5.732;2022-10-16T16:06:50;2.37;;;1.63;;
15669;SDS011;18524;45.190;5.732;2022-10-16T16:11:41;2.77;;;1.70;;
15669;SDS011;18524;45.190;5.732;2022-10-16T16:16:32;2.03;;;1.50;;
15669;SDS011;18524;45.190;5.732;2022-10-16T16:21:27;2.70;;;1.80;;
15669;SDS011;18524;45.190;5.732;2022-10-16T16:26:28;3.13;;;1.63;;
15669;SDS011;18524;45.190;5.732;2022-10-16T16:31:26;3.47;;;2.10;;
15669;SDS011;18524;45.190;5.732;2022-10-16T16:36:18;3.83;;;2.20;;
15669;SDS011;18524;45.190;5.732;2022-10-16T16:41:12;4.40;;;1.80;;
15669;SDS011;18524;45.190;5.732;2022-10-16T16:46:06;2.27;;;1.90;;
15669;SDS011;18524;45.190;5.732;2022-10-16T16:50:57;4.93;;;1.90;;
15669;SDS011;18524;45.190;5.732;2022-10-16T16:55:52;3.83;;;2.23;;
15669;SDS011;18524;45.190;5.732;2022-10-16T17:00:46;2.07;;;1.47;;
15669;SDS011;18524;45.190;5.732;2022-10-16T17:05:37;2.37;;;2.00;;
15669;SDS011;18524;45.190;5.732;2022-10-16T17:10:27;3.50;;;1.90;;
15669;SDS011;18524;45.190;5.732;2022-10-16T17:15:17;2.90;;;2.00;;
15669;SDS011;18524;45.190;5.732;2022-10-16T17:20:08;2.53;;;1.90;;
15669;SDS011;18524;45.190;5.732;2022-10-16T17:25:00;2.43;;;2.00;;
15669;SDS011;18524;45.190;5.732;2022-10-16T17:29:52;2.27;;;2.07;;
15669;SDS011;18524;45.190;5.732;2022-10-16T17:34:43;3.17;;;2.37;;
15669;SDS011;18524;45.190;5.732;2022-10-16T17:39:33;2.70;;;2.30;;
15669;SDS011;18524;45.190;5.732;2022-10-16T17:44:24;3.23;;;2.00;;
15669;SDS011;18524;45.190;5.732;2022-10-16T17:49:14;2.63;;;2.00;;
15669;SDS011;18524;45.190;5.732;2022-10-16T17:54:05;2.67;;;2.23;;
15669;SDS011;18524;45.190;5.732;2022-10-16T17:58:57;2.83;;;2.53;;
15669;SDS011;18524;45.190;5.732;2022-10-16T18:03:51;3.87;;;3.40;;
15669;SDS011;18524;45.190;5.732;2022-10-16T18:08:43;3.43;;;2.90;;
15669;SDS011;18524;45.190;5.732;2022-10-16T18:13:34;2.43;;;2.23;;
15669;SDS011;18524;45.190;5.732;2022-10-16T18:18:24;3.33;;;2.10;;
15669;SDS011;18524;45.190;5.732;2022-10-16T18:23:15;2.87;;;2.40;;
15669;SDS011;18524;45.190;5.732;2022-10-16T18:28:05;3.57;;;2.40;;
15669;SDS011;18524;45.190;5.732;2022-10-16T18:32:55;4.63;;;2.50;;
15669;SDS011;18524;45.190;5.732;2022-10-16T18:37:46;3.43;;;2.17;;
15669;SDS011;18524;45.190;5.732;2022-10-16T18:42:36;3.00;;;2.57;;
15669;SDS011;18524;45.190;5.732;2022-10-16T18:47:27;2.77;;;1.90;;
15669;SDS011;18524;45.190;5.732;2022-10-16T18:52:18;3.53;;;2.13;;
15669;SDS011;18524;45.190;5.732;2022-10-16T18:57:08;3.20;;;2.20;;
15669;SDS011;18524;45.190;5.732;2022-10-16T19:01:58;4.53;;;3.47;;
15669;SDS011;18524;45.190;5.732;2022-10-16T19:06:49;10.13;;;9.10;;
15669;SDS011;18524;45.190;5.732;2022-10-16T19:11:43;3.53;;;2.97;;
15669;SDS011;18524;45.190;5.732;2022-10-16T19:16:34;4.90;;;2.97;;
15669;SDS011;18524;45.190;5.732;2022-10-16T19:21:25;2.87;;;2.50;;
15669;SDS011;18524;45.190;5.732;2022-10-16T19:26:17;5.90;;;3.80;;
15669;SDS011;18524;45.190;5.732;2022-10-16T19:31:10;9.87;;;6.20;;
15669;SDS011;18524;45.190;5.732;2022-10-16T19:36:09;13.60;;;7.93;;
15669;SDS011;18524;45.190;5.732;2022-10-16T19:41:15;10.93;;;7.07;;
15669;SDS011;18524;45.190;5.732;2022-10-16T19:46:08;9.47;;;6.50;;
15669;SDS011;18524;45.190;5.732;2022-10-16T19:51:00;9.30;;;5.60;;
15669;SDS011;18524;45.190;5.732;2022-10-16T19:55:51;7.60;;;5.20;;
15669;SDS011;18524;45.190;5.732;2022-10-16T20:00:42;10.30;;;5.97;;
15669;SDS011;18524;45.190;5.732;2022-10-16T20:05:32;6.70;;;5.03;;
15669;SDS011;18524;45.190;5.732;2022-10-16T20:10:22;7.87;;;4.97;;
15669;SDS011;18524;45.190;5.732;2022-10-16T20:15:14;7.97;;;4.97;;
15669;SDS011;18524;45.190;5.732;2022-10-16T20:20:05;10.17;;;5.60;;
15669;SDS011;18524;45.190;5.732;2022-10-16T20:24:55;6.00;;;5.40;;
15669;SDS011;18524;45.190;5.732;2022-10-16T20:29:46;5.60;;;4.97;;
15669;SDS011;18524;45.190;5.732;2022-10-16T20:34:36;7.97;;;5.30;;
15669;SDS011;18524;45.190;5.732;2022-10-16T20:39:26;5.57;;;4.60;;
15669;SDS011;18524;45.190;5.732;2022-10-16T20:44:17;4.00;;;3.70;;
15669;SDS011;18524;45.190;5.732;2022-10-16T20:49:07;4.07;;;3.20;;
15669;SDS011;18524;45.190;5.732;2022-10-16T20:53:59;4.60;;;3.13;;
15669;SDS011;18524;45.190;5.732;2022-10-16T20:58:51;4.63;;;3.17;;
15669;SDS011;18524;45.190;5.732;2022-10-16T21:03:42;4.30;;;3.00;;
15669;SDS011;18524;45.190;5.732;2022-10-16T21:08:34;3.67;;;2.97;;
15669;SDS011;18524;45.190;5.732;2022-10-16T21:13:26;2.83;;;2.63;;
15669;SDS011;18524;45.190;5.732;2022-10-16T21:18:16;2.90;;;2.50;;
15669;SDS011;18524;45.190;5.732;2022-10-16T21:23:06;3.10;;;2.80;;
15669;SDS011;18524;45.190;5.732;2022-10-16T21:27:57;2.90;;;2.60;;
15669;SDS011;18524;45.190;5.732;2022-10-16T21:32:47;3.37;;;2.37;;
15669;SDS011;18524;45.190;5.732;2022-10-16T21:37:37;5.13;;;2.27;;
15669;SDS011;18524;45.190;5.732;2022-10-16T21:42:28;2.90;;;2.13;;
15669;SDS011;18524;45.190;5.732;2022-10-16T21:47:18;2.47;;;2.20;;
15669;SDS011;18524;45.190;5.732;2022-10-16T21:52:08;3.50;;;2.00;;
15669;SDS011;18524;45.190;5.732;2022-10-16T21:56:59;6.73;;;2.10;;
15669;SDS011;18524;45.190;5.732;2022-10-16T22:01:53;3.90;;;2.20;;
15669;SDS011;18524;45.190;5.732;2022-10-16T22:06:44;3.20;;;2.00;;
15669;SDS011;18524;45.190;5.732;2022-10-16T22:11:35;3.43;;;2.37;;
15669;SDS011;18524;45.190;5.732;2022-10-16T22:16:26;2.53;;;2.23;;
15669;SDS011;18524;45.190;5.732;2022-10-16T22:21:17;4.40;;;2.63;;
15669;SDS011;18524;45.190;5.732;2022-10-16T22:26:09;4.57;;;2.50;;
15669;SDS011;18524;45.190;5.732;2022-10-16T22:31:01;4.87;;;2.70;;
15669;SDS011;18524;45.190;5.732;2022-10-16T22:35:53;4.40;;;2.67;;
15669;SDS011;18524;45.190;5.732;2022-10-16T22:40:43;3.20;;;2.77;;
15669;SDS011;18524;45.190;5.732;2022-10-16T22:45:34;3.60;;;2.43;;
15669;SDS011;18524;45.190;5.732;2022-10-16T22:50:25;3.10;;;2.53;;
15669;SDS011;18524;45.190;5.732;2022-10-16T22:55:16;3.50;;;2.60;;
15669;SDS011;18524;45.190;5.732;2022-10-16T23:00:07;3.27;;;2.50;;
15669;SDS011;18524;45.190;5.732;2022-10-16T23:05:01;4.03;;;2.87;;
15669;SDS011;18524;45.190;5.732;2022-10-16T23:09:51;4.03;;;2.63;;
15669;SDS011;18524;45.190;5.732;2022-10-16T23:14:43;3.50;;;2.30;;
15669;SDS011;18524;45.190;5.732;2022-10-16T23:19:33;3.23;;;2.50;;
15669;SDS011;18524;45.190;5.732;2022-10-16T23:24:24;3.93;;;2.83;;
15669;SDS011;18524;45.190;5.732;2022-10-16T23:29:14;3.90;;;2.67;;
15669;SDS011;18524;45.190;5.732;2022-10-16T23:34:05;3.40;;;3.10;;
15669;SDS011;18524;45.190;5.732;2022-10-16T23:38:55;6.43;;;3.30;;
15669;SDS011;18524;45.190;5.732;2022-10-16T23:43:45;3.80;;;3.50;;
15669;SDS011;18524;45.190;5.732;2022-10-16T23:48:36;5.07;;;3.47;;
15669;SDS011;18524;45.190;5.732;2022-10-16T23:53:27;4.23;;;3.57;;
15669;SDS011;18524;45.190;5.732;2022-10-16T23:58:18;3.70;;;3.17;;
